Time;durP1;ratioP1;P1;durP2;ratioP2;P2;SDS_P1;SDS_P2;PMS_P1;PMS_P2;Temp;Humidity;BMP_temperature;BMP_pressure;BME280_temperature;BME280_humidity;BME280_pressure;Samples;Min_cycle;Max_cycle;Signal;HPM_P1;HPM_P2
2023/10/02 00:01:10;;;;;;;17.23;10.93;;;;;;;-143.21;67.47;72494.59;5134153;27;20278;-79
2023/10/02 00:03:40;;;;;;;14.13;9.83;;;;;;;-143.21;67.84;72504.50;5132625;27;20255;-79
2023/10/02 00:06:09;;;;;;;15.63;10.33;;;;;;;-143.21;67.35;72504.50;5134996;27;20673;-79
2023/10/02 00:08:40;;;;;;;15.30;10.53;;;;;;;-143.21;67.38;72486.66;5134774;27;20285;-79
2023/10/02 00:16:43;;;;;;;13.90;9.50;;;;;;;-143.21;66.08;72470.78;5137899;27;20203;-79
2023/10/02 00:19:22;;;;;;;15.07;9.63;;;;;;;-143.21;65.99;72466.81;5134540;27;20645;-78
2023/10/02 00:21:50;;;;;;;15.90;9.63;;;;;;;-143.21;65.51;72468.81;5136628;27;20560;-78
2023/10/02 00:24:17;;;;;;;14.77;9.70;;;;;;;-143.21;65.96;72478.72;5136056;27;20198;-78
2023/10/02 00:26:44;;;;;;;15.37;9.37;;;;;;;-143.21;65.90;72490.63;5138506;27;20194;-78
2023/10/02 00:29:11;;;;;;;12.27;8.57;;;;;;;-143.21;66.20;72498.56;5138352;27;20201;-80
2023/10/02 00:31:38;;;;;;;13.13;8.87;;;;;;;-143.21;65.78;72492.59;5133368;27;20198;-79
2023/10/02 00:34:06;;;;;;;12.60;9.20;;;;;;;-143.21;65.40;72480.72;5145103;27;20230;-78
2023/10/02 00:36:33;;;;;;;11.30;8.70;;;;;;;-143.21;65.46;72476.75;5138575;27;20295;-77
2023/10/02 00:39:24;;;;;;;12.37;8.60;;;;;;;-143.21;65.39;72484.66;5137304;27;20194;-78
2023/10/02 00:47:16;;;;;;;13.10;8.13;;;;;;;-143.21;64.80;72478.72;5139291;27;20195;-77
2023/10/02 00:49:43;;;;;;;13.37;8.47;;;;;;;-143.21;64.88;72482.69;5142040;27;20198;-78
2023/10/02 00:52:10;;;;;;;12.63;8.00;;;;;;;-143.21;64.41;72478.72;5151965;27;20199;-77
2023/10/02 00:54:37;;;;;;;11.23;7.30;;;;;;;-143.21;64.61;72478.72;5159083;27;20700;-80
2023/10/02 00:57:16;;;;;;;16.43;8.20;;;;;;;-143.21;64.09;72470.78;5137925;27;20282;-79
2023/10/02 00:59:45;;;;;;;10.73;7.77;;;;;;;-143.21;64.07;72472.78;5134273;27;20286;-77
2023/10/02 01:02:17;;;;;;;12.57;7.63;;;;;;;-143.21;64.02;72474.75;5130210;27;20963;-77
2023/10/02 01:04:47;;;;;;;17.70;7.93;;;;;;;-143.21;64.03;72478.72;5136977;27;20194;-78
2023/10/02 01:07:15;;;;;;;12.37;8.23;;;;;;;-143.21;64.21;72490.63;5144636;27;20285;-78
2023/10/02 01:10:06;;;;;;;13.03;7.90;;;;;;;-143.21;64.22;72484.66;5133993;27;20650;-80
2023/10/02 01:12:38;;;;;;;17.20;7.83;;;;;;;-143.21;63.91;72484.66;5133208;27;20566;-78
2023/10/02 01:15:11;;;;;;;15.20;7.70;;;;;;;-143.21;64.03;72478.72;5137620;27;20268;-81
2023/10/02 01:17:39;;;;;;;13.47;8.03;;;;;;;-143.21;63.70;72476.75;5139516;27;20213;-79
2023/10/02 01:20:20;;;;;;;13.03;8.03;;;;;;;-143.21;63.81;72488.63;5145587;27;20322;-79
2023/10/02 01:22:51;;;;;;;13.40;7.83;;;;;;;-143.21;63.32;72480.72;5133956;27;20600;-79
2023/10/02 01:25:23;;;;;;;14.33;7.67;;;;;;;-143.21;63.37;72476.75;5140472;27;20195;-77
2023/10/02 01:27:51;;;;;;;11.17;7.33;;;;;;;-143.21;63.30;72482.69;5135339;27;20190;-77
2023/10/02 01:30:20;;;;;;;12.70;7.60;;;;;;;-143.21;63.07;72484.66;5138756;27;20298;-77
2023/10/02 01:33:06;;;;;;;14.60;8.13;;;;;;;-143.21;63.30;72492.59;5138698;27;20560;-77
2023/10/02 01:35:37;;;;;;;13.30;7.67;;;;;;;-143.21;63.03;72486.66;5136793;27;20195;-77
2023/10/02 01:38:12;;;;;;;13.50;7.77;;;;;;;-143.21;63.31;72504.50;5137075;27;20282;-77
2023/10/02 01:40:42;;;;;;;13.57;8.40;;;;;;;-143.21;63.69;72514.41;5143198;27;20198;-77
2023/10/02 01:43:14;;;;;;;11.67;7.63;;;;;;;-143.21;64.01;72528.31;5139199;27;20206;-77
2023/10/02 01:45:44;;;;;;;11.23;7.17;;;;;;;-143.21;64.02;72532.28;5139592;27;20282;-78
2023/10/02 01:48:13;;;;;;;13.47;7.63;;;;;;;-143.21;64.64;72548.13;5134837;27;20676;-78
2023/10/02 01:50:43;;;;;;;13.67;7.83;;;;;;;-143.21;64.60;72544.16;5133302;27;20291;-78
2023/10/02 01:53:28;;;;;;;15.03;8.07;;;;;;;-143.21;64.41;72544.16;5135115;27;20672;-78
2023/10/02 01:56:11;;;;;;;13.83;7.17;;;;;;;-143.21;64.23;72542.19;5130092;27;20206;-78
2023/10/02 01:58:39;;;;;;;10.23;6.67;;;;;;;-143.21;63.83;72532.28;5135501;27;20199;-78
2023/10/02 02:01:09;;;;;;;11.50;7.10;;;;;;;-143.21;63.94;72536.25;5147012;27;20744;-78
2023/10/02 02:03:37;;;;;;;15.23;7.07;;;;;;;-143.21;63.94;72548.13;5137320;27;20693;-78
2023/10/02 02:06:09;;;;;;;16.93;7.53;;;;;;;-143.21;63.69;72548.13;5135754;27;20230;-78
2023/10/02 02:08:37;;;;;;;15.90;7.70;;;;;;;-143.21;63.78;72550.13;5142759;27;20319;-78
2023/10/02 02:11:18;;;;;;;12.03;7.10;;;;;;;-143.21;64.19;72562.03;5144593;27;20207;-77
2023/10/02 02:13:49;;;;;;;12.43;7.70;;;;;;;-143.21;64.17;72577.88;5133468;27;20582;-78
2023/10/02 02:16:17;;;;;;;11.50;7.63;;;;;;;-143.21;64.41;72579.88;5130065;27;20274;-78
2023/10/02 02:18:45;;;;;;;10.40;7.03;;;;;;;-143.21;63.95;72583.84;5133373;27;20276;-78
2023/10/02 02:21:19;;;;;;;10.63;6.70;;;;;;;-143.21;64.06;72587.81;5136023;27;20208;-77
2023/10/02 02:23:47;;;;;;;11.77;7.03;;;;;;;-143.21;64.23;72593.75;5136226;27;20210;-77
2023/10/02 02:26:21;;;;;;;12.73;6.77;;;;;;;-143.21;63.36;72597.72;5141059;27;20201;-77
2023/10/02 02:28:52;;;;;;;13.23;6.63;;;;;;;-143.21;63.45;72599.69;5138004;27;20194;-77
2023/10/02 02:31:32;;;;;;;10.37;7.03;;;;;;;-143.21;63.47;72607.63;5133868;27;20231;-76
2023/10/02 02:34:02;;;;;;;11.60;6.80;;;;;;;-143.21;63.12;72623.50;5130940;27;20768;-77
2023/10/02 02:36:34;;;;;;;11.60;6.50;;;;;;;-143.21;63.46;72637.38;5139048;27;20259;-79
2023/10/02 02:39:17;;;;;;;11.77;7.03;;;;;;;-143.21;63.62;72657.22;5140926;27;21978;-79
2023/10/02 02:41:47;;;;;;;11.53;6.77;;;;;;;-143.21;63.79;72673.09;5137572;27;20243;-79
2023/10/02 02:44:36;;;;;;;16.73;6.83;;;;;;;-143.21;63.32;72673.09;5127889;27;20218;-79
2023/10/02 02:47:07;;;;;;;9.03;6.23;;;;;;;-143.21;63.21;72671.09;5129701;27;20218;-80
2023/10/02 02:49:50;;;;;;;10.07;6.70;;;;;;;-143.21;62.91;72667.13;5132781;27;20211;-80
2023/10/02 02:52:19;;;;;;;13.00;7.00;;;;;;;-143.21;62.87;72679.03;5134953;27;20195;-80
2023/10/02 02:54:47;;;;;;;11.27;7.03;;;;;;;-143.21;63.08;72681.03;5138248;27;20222;-80
2023/10/02 02:57:18;;;;;;;12.03;6.47;;;;;;;-143.21;63.44;72688.94;5130705;27;20223;-80
2023/10/02 02:59:46;;;;;;;14.87;7.10;;;;;;;-143.21;63.69;72694.91;5130767;27;20199;-80
2023/10/02 03:02:21;;;;;;;10.43;6.70;;;;;;;-143.21;64.14;72704.81;5132251;27;21165;-79
2023/10/02 03:04:50;;;;;;;11.87;7.20;;;;;;;-143.21;64.73;72720.69;5132316;27;20612;-79
2023/10/02 03:07:29;;;;;;;14.83;6.37;;;;;;;-143.21;64.20;72700.84;5134441;27;20202;-79
2023/10/02 03:09:58;;;;;;;11.63;6.93;;;;;;;-143.21;63.85;72688.94;5141077;27;20210;-78
2023/10/02 03:12:27;;;;;;;12.67;7.10;;;;;;;-143.21;64.09;72686.97;5138353;27;20198;-78
2023/10/02 03:14:56;;;;;;;12.30;6.83;;;;;;;-143.21;63.97;72681.03;5132956;27;20257;-78
2023/10/02 03:17:29;;;;;;;12.90;6.73;;;;;;;-143.21;63.45;72675.06;5135300;27;20203;-79
2023/10/02 03:19:57;;;;;;;11.67;6.50;;;;;;;-143.21;62.31;72665.16;5143752;27;20187;-78
2023/10/02 03:22:27;;;;;;;12.50;6.60;;;;;;;-143.21;62.18;72665.16;5134445;27;20199;-78
2023/10/02 03:24:57;;;;;;;13.20;7.03;;;;;;;-143.21;61.50;72661.19;5129577;27;20282;-80
2023/10/02 03:27:26;;;;;;;12.60;6.63;;;;;;;-143.21;61.20;72659.19;5128785;27;20274;-81
2023/10/02 03:29:54;;;;;;;11.03;6.63;;;;;;;-143.21;61.53;72673.09;5134902;27;20207;-80
2023/10/02 03:32:21;;;;;;;12.90;6.07;;;;;;;-143.21;61.10;72671.09;5136374;27;20199;-80
2023/10/02 03:35:02;;;;;;;12.07;6.70;;;;;;;-143.21;60.52;72673.09;5132790;27;20219;-78
2023/10/02 03:37:29;;;;;;;10.03;6.23;;;;;;;-143.21;60.55;72681.03;5130411;27;20199;-78
2023/10/02 03:40:14;;;;;;;12.37;6.60;;;;;;;-143.21;60.45;72679.03;5136750;27;20205;-77
2023/10/02 03:42:40;;;;;;;11.37;6.20;;;;;;;-143.21;59.92;72671.09;5130255;27;20290;-80
2023/10/02 03:45:12;;;;;;;10.33;5.73;;;;;;;-143.21;59.55;72677.06;5131631;27;20724;-79
2023/10/02 03:47:41;;;;;;;13.30;6.60;;;;;;;-143.21;59.83;72686.97;5133194;27;20203;-79
2023/10/02 03:50:12;;;;;;;10.67;6.90;;;;;;;-143.21;59.45;72683.00;5130626;27;20237;-79
2023/10/02 03:52:41;;;;;;;13.10;8.40;;;;;;;-143.21;59.69;72688.94;5140017;27;20195;-80
2023/10/02 03:55:19;;;;;;;15.63;8.20;;;;;;;-143.21;59.17;72685.00;5125877;27;20314;-79
2023/10/02 03:57:50;;;;;;;9.50;6.77;;;;;;;-143.21;59.28;72696.88;5119809;27;20203;-79
2023/10/02 04:00:22;;;;;;;14.10;6.23;;;;;;;-143.21;58.74;72702.84;5128975;27;20195;-79
2023/10/02 04:02:50;;;;;;;14.83;6.10;;;;;;;-143.21;59.03;72706.81;5125571;27;20225;-81
2023/10/02 04:05:32;;;;;;;11.13;5.50;;;;;;;-143.21;58.88;72710.78;5135098;27;20199;-80
2023/10/02 04:08:13;;;;;;;11.07;5.57;;;;;;;-143.21;58.76;72712.75;5135095;27;20195;-80
2023/10/02 04:10:55;;;;;;;10.90;6.07;;;;;;;-143.21;58.26;72706.81;5143023;27;20198;-78
2023/10/02 04:13:23;;;;;;;14.30;5.90;;;;;;;-143.21;58.20;72710.78;5134038;27;20567;-79
2023/10/02 04:15:53;;;;;;;17.47;5.67;;;;;;;-143.21;58.25;72708.78;5129308;27;20545;-78
2023/10/02 04:21:09;;;;;;;8.97;5.30;;;;;;;-143.21;57.63;72702.84;5131749;27;21331;-79
2023/10/02 04:23:40;;;;;;;10.93;5.20;;;;;;;-143.21;57.63;72712.75;5136667;27;20213;-80
2023/10/02 04:26:07;;;;;;;9.50;5.60;;;;;;;-143.21;57.72;72716.72;5130487;27;20208;-78
2023/10/02 04:28:49;;;;;;;9.37;5.43;;;;;;;-143.21;57.57;72716.72;5144615;27;20207;-79
2023/10/02 04:31:21;;;;;;;9.77;5.07;;;;;;;-143.21;57.74;72732.59;5128961;27;20726;-79
2023/10/02 04:33:52;;;;;;;11.77;4.90;;;;;;;-143.21;57.70;72738.53;5134617;27;20665;-78
2023/10/02 04:36:28;;;;;;;9.30;5.07;;;;;;;-143.21;57.80;72728.63;5133316;27;20665;-80
2023/10/02 04:38:57;;;;;;;16.10;5.87;;;;;;;-143.21;57.84;72750.44;5137481;27;20672;-80
2023/10/02 04:41:26;;;;;;;15.70;5.27;;;;;;;-143.21;58.04;72754.41;5129956;27;20200;-80
2023/10/02 04:43:57;;;;;;;15.43;5.77;;;;;;;-143.21;57.70;72744.50;5133389;27;21172;-80
2023/10/02 04:46:28;;;;;;;9.90;5.23;;;;;;;-143.21;57.93;72750.44;5132953;27;20676;-80
2023/10/02 04:48:59;;;;;;;15.63;5.43;;;;;;;-143.21;57.80;72768.28;5130132;27;20227;-81
2023/10/02 04:51:28;;;;;;;15.97;5.80;;;;;;;-143.21;58.32;72780.19;5129298;27;20234;-80
2023/10/02 04:53:58;;;;;;;12.57;5.60;;;;;;;-143.21;58.21;72780.19;5129423;27;20223;-80
2023/10/02 04:56:26;;;;;;;14.53;6.23;;;;;;;-143.21;58.71;72784.16;5129634;27;20199;-80
2023/10/02 04:58:57;;;;;;;14.30;6.13;;;;;;;-143.21;58.35;72772.25;5138939;27;20207;-80
2023/10/02 05:01:41;;;;;;;17.00;5.97;;;;;;;-143.21;58.38;72764.31;5137733;27;20242;-81
2023/10/02 05:04:18;;;;;;;10.60;5.63;;;;;;;-143.21;57.83;72764.31;5131628;27;20209;-80
2023/10/02 05:06:52;;;;;;;13.27;5.63;;;;;;;-143.21;57.92;72764.31;5138235;27;20588;-81
2023/10/02 05:09:25;;;;;;;16.47;5.30;;;;;;;-143.21;57.28;72758.38;5129340;27;20206;-81
2023/10/02 05:11:52;;;;;;;12.63;5.33;;;;;;;-143.21;56.75;72748.47;5136840;27;20661;-84
2023/10/02 05:14:29;;;;;;;12.60;5.07;;;;;;;-143.21;56.90;72748.47;5140803;27;20243;-82
2023/10/02 05:17:16;;;;;;;14.47;4.73;;;;;;;-143.21;57.24;72762.34;5133998;27;20199;-80
2023/10/02 05:22:31;;;;;;;13.27;5.13;;;;;;;-143.21;56.76;72744.50;5137426;27;20201;-81
2023/10/02 05:24:59;;;;;;;11.50;5.27;;;;;;;-143.21;57.11;72756.38;5138658;27;20318;-78
2023/10/02 05:27:35;;;;;;;9.93;5.23;;;;;;;-143.21;56.64;72752.41;5134529;27;20268;-80
2023/10/02 05:30:12;;;;;;;14.20;5.67;;;;;;;-143.21;56.87;72754.41;5123447;27;20191;-81
2023/10/02 05:32:42;;;;;;;10.57;4.73;;;;;;;-143.21;57.37;72776.22;5132725;27;20289;-82
2023/10/02 05:35:18;;;;;;;11.37;5.23;;;;;;;-143.21;57.18;72764.31;5132238;27;20222;-81
2023/10/02 05:37:46;;;;;;;16.67;6.07;;;;;;;-143.21;57.24;72768.28;5148721;27;20285;-82
2023/10/02 05:45:53;;;;;;;6.97;4.30;;;;;;;-143.21;56.76;72758.38;5143768;27;20198;-81
2023/10/02 05:48:28;;;;;;;9.77;4.20;;;;;;;-143.21;56.46;72764.31;5130462;27;20207;-80
2023/10/02 05:50:59;;;;;;;11.10;4.67;;;;;;;-143.21;56.66;72760.34;5135031;27;20257;-81
2023/10/02 05:53:29;;;;;;;7.77;4.30;;;;;;;-143.21;56.30;72756.38;5139419;27;20207;-81
2023/10/02 05:56:06;;;;;;;9.70;4.60;;;;;;;-143.21;56.44;72764.31;5134370;27;20272;-82
2023/10/02 05:58:33;;;;;;;8.20;4.60;;;;;;;-143.21;56.44;72752.41;5134999;27;20207;-81
2023/10/02 06:01:03;;;;;;;10.40;4.37;;;;;;;-143.21;55.89;72744.50;5136147;27;20206;-80
2023/10/02 06:03:34;;;;;;;11.10;4.63;;;;;;;-143.21;55.46;72742.50;5128788;27;20211;-79
2023/10/02 06:06:21;;;;;;;12.07;5.00;;;;;;;-143.21;56.45;72756.38;5134622;27;20213;-80
2023/10/02 06:08:50;;;;;;;12.83;4.70;;;;;;;-143.21;56.23;72766.31;5132074;27;20195;-80
2023/10/02 06:14:12;;;;;;;8.10;4.47;;;;;;;-143.21;56.74;72762.34;5127928;27;20724;-79
2023/10/02 06:16:40;;;;;;;7.57;4.23;;;;;;;-143.21;55.97;72750.44;5136416;27;20286;-79
2023/10/02 06:19:13;;;;;;;9.30;4.53;;;;;;;-143.21;55.95;72754.41;5132767;27;20218;-80
2023/10/02 06:21:46;;;;;;;9.63;4.70;;;;;;;-143.21;55.90;72752.41;5132263;27;20284;-80
2023/10/02 06:24:15;;;;;;;18.27;4.80;;;;;;;-143.21;55.73;72748.47;5130124;27;20577;-80
2023/10/02 06:26:55;;;;;;;8.40;4.30;;;;;;;-143.21;55.58;72734.56;5128678;27;20205;-80
2023/10/02 06:29:23;;;;;;;11.50;4.87;;;;;;;-143.21;55.82;72738.53;5126160;27;20932;-80
2023/10/02 06:31:59;;;;;;;10.30;5.13;;;;;;;-143.21;55.67;72734.56;5135218;27;20200;-79
2023/10/02 06:34:37;;;;;;;9.07;4.40;;;;;;;-143.21;54.91;72704.81;5139888;27;21440;-79
2023/10/02 06:37:11;;;;;;;8.23;4.50;;;;;;;-143.21;54.59;72700.84;5138653;27;20289;-79
2023/10/02 06:39:40;;;;;;;10.70;4.50;;;;;;;-143.21;54.28;72683.00;5130918;27;20199;-79
2023/10/02 06:42:08;;;;;;;10.13;4.30;;;;;;;-143.21;54.27;72698.88;5135209;27;20206;-79
2023/10/02 06:44:42;;;;;;;12.17;4.43;;;;;;;-143.21;54.26;72688.94;5139634;27;20294;-79
2023/10/02 06:47:13;;;;;;;8.23;4.20;;;;;;;-143.21;54.09;72683.00;5137091;27;20210;-78
2023/10/02 06:49:41;;;;;;;10.73;5.70;;;;;;;-143.21;54.06;72683.00;5128906;27;20203;-79
2023/10/02 06:52:15;;;;;;;10.50;6.17;;;;;;;-143.21;54.08;72677.06;5137755;27;20203;-78
2023/10/02 06:54:48;;;;;;;10.37;5.87;;;;;;;-143.21;54.05;72686.97;5132966;27;20217;-78
2023/10/02 06:57:16;;;;;;;9.23;5.50;;;;;;;-143.21;54.12;72692.91;5132553;27;20195;-78
2023/10/02 06:59:52;;;;;;;12.13;4.47;;;;;;;-143.21;54.27;72688.94;5129274;27;20215;-77
2023/10/02 07:02:23;;;;;;;11.37;4.80;;;;;;;-143.21;54.27;72698.88;5126492;27;20737;-77
2023/10/02 07:04:52;;;;;;;10.80;4.60;;;;;;;-143.21;54.41;72688.94;5138365;27;20191;-77
2023/10/02 07:07:25;;;;;;;9.17;4.70;;;;;;;-143.21;53.91;72685.00;5135249;27;20279;-76
2023/10/02 07:09:54;;;;;;;10.53;4.93;;;;;;;-143.21;54.30;72688.94;5126997;27;20284;-76
2023/10/02 07:12:21;;;;;;;8.53;4.20;;;;;;;-143.21;54.12;72692.91;5134516;27;20213;-76
2023/10/02 07:14:49;;;;;;;10.20;5.10;;;;;;;-143.21;54.67;72704.81;5137265;27;20250;-77
2023/10/02 07:17:21;;;;;;;9.40;4.67;;;;;;;-143.21;55.21;72694.91;5139526;27;20518;-77
2023/10/02 07:19:52;;;;;;;7.80;4.17;;;;;;;-143.21;55.04;72686.97;5133441;27;20291;-77
2023/10/02 07:22:24;;;;;;;9.17;4.70;;;;;;;-143.21;54.69;72673.09;5140192;27;20226;-77
2023/10/02 07:24:55;;;;;;;11.03;4.53;;;;;;;-143.21;54.36;72667.13;5136795;27;20210;-77
2023/10/02 07:27:24;;;;;;;12.23;4.50;;;;;;;-143.21;54.53;72659.19;5132752;27;20285;-77
2023/10/02 07:29:52;;;;;;;9.60;4.30;;;;;;;-143.21;53.77;72645.31;5127920;27;20207;-78
2023/10/02 07:32:20;;;;;;;8.00;4.50;;;;;;;-143.21;54.26;72643.34;5134581;27;20638;-79
2023/10/02 07:34:48;;;;;;;11.23;4.00;;;;;;;-143.21;54.15;72643.34;5134329;27;20948;-79
2023/10/02 07:37:21;;;;;;;15.10;5.00;;;;;;;-143.21;54.30;72639.38;5134982;27;20688;-77
2023/10/02 07:39:57;;;;;;;8.00;4.10;;;;;;;-143.21;54.67;72647.31;5127982;27;20207;-79
2023/10/02 07:42:31;;;;;;;20.10;4.93;;;;;;;-143.21;53.60;72635.41;5143054;27;20225;-74
2023/10/02 07:45:11;;;;;;;10.13;4.97;;;;;;;-143.21;53.51;72633.41;5133017;27;20244;-78
2023/10/02 07:47:55;;;;;;;8.40;4.37;;;;;;;-143.21;53.54;72633.41;5136998;27;20195;-76
2023/10/02 07:50:33;;;;;;;15.73;4.67;;;;;;;-143.21;53.88;72633.41;5150949;27;20237;-75
2023/10/02 07:53:01;;;;;;;10.23;4.40;;;;;;;-143.21;53.22;72621.53;5157316;27;20857;-76
2023/10/02 07:55:29;;;;;;;11.50;4.70;;;;;;;-143.21;53.41;72609.63;5150010;27;20211;-76
2023/10/02 07:58:00;;;;;;;12.17;4.53;;;;;;;-143.21;53.04;72601.69;5143946;27;20207;-76
2023/10/02 08:00:41;;;;;;;10.00;4.63;;;;;;;-143.21;52.92;72587.81;5129262;27;20199;-76
2023/10/02 08:05:51;;;;;;;9.30;4.60;;;;;;;-143.21;52.59;72585.81;5117195;28;20191;-77
2023/10/02 08:08:18;;;;;;;11.87;4.77;;;;;;;-143.21;52.46;72581.84;5127594;28;20248;-76
2023/10/02 08:10:50;;;;;;;9.17;4.23;;;;;;;-143.21;52.15;72554.09;5129082;27;20647;-75
2023/10/02 08:13:17;;;;;;;10.67;4.80;;;;;;;-143.21;51.82;72544.16;5128563;28;20617;-76
2023/10/02 08:15:45;;;;;;;12.93;4.80;;;;;;;-143.21;51.67;72532.28;5129239;27;20230;-78
2023/10/02 08:18:17;;;;;;;11.07;4.90;;;;;;;-143.21;51.24;72522.34;5142457;27;20306;-78
2023/10/02 08:20:45;;;;;;;9.27;4.73;;;;;;;-143.21;51.24;72522.34;5142437;27;20232;-77
2023/10/02 08:23:21;;;;;;;11.77;5.00;;;;;;;-143.21;51.57;72512.44;5129380;28;20207;-77
2023/10/02 08:26:00;;;;;;;11.07;5.60;;;;;;;-143.21;51.22;72500.53;5122441;28;20255;-77
2023/10/02 08:28:29;;;;;;;9.87;4.60;;;;;;;-143.21;50.52;72494.59;5128978;28;20214;-77
2023/10/02 08:31:01;;;;;;;13.67;4.90;;;;;;;-143.21;50.57;72494.59;5131302;27;20202;-76
2023/10/02 08:33:30;;;;;;;13.73;5.47;;;;;;;-143.21;50.30;72466.81;5150920;27;20609;-76
2023/10/02 08:35:58;;;;;;;14.30;5.10;;;;;;;-143.21;49.92;72448.97;5154190;27;20222;-77
2023/10/02 08:38:26;;;;;;;9.40;5.23;;;;;;;-143.21;49.75;72441.03;5135006;27;20246;-77
2023/10/02 08:40:59;;;;;;;10.37;4.70;;;;;;;-143.21;49.36;72437.06;5133418;27;20286;-77
2023/10/02 08:43:26;;;;;;;12.80;5.00;;;;;;;-143.21;49.19;72419.22;5134934;27;20274;-78
2023/10/02 08:45:53;;;;;;;11.07;4.83;;;;;;;-143.21;48.77;72409.31;5138681;27;20195;-77
2023/10/02 08:48:21;;;;;;;10.13;4.90;;;;;;;-143.21;48.60;72389.47;5133737;27;20188;-76
2023/10/02 08:50:48;;;;;;;12.73;4.97;;;;;;;-143.21;47.79;72365.69;5133269;27;20235;-78
2023/10/02 08:53:20;;;;;;;8.80;4.50;;;;;;;-143.21;47.55;72351.78;5133778;27;20191;-76
2023/10/02 08:55:55;;;;;;;12.35;5.15;;;;;;;-143.21;47.19;72349.81;5135376;27;20223;-77
2023/10/02 08:58:27;;;;;;;10.25;4.43;;;;;;;-143.21;47.26;72324.03;5137864;27;20183;-76
2023/10/02 09:01:05;;;;;;;10.35;4.45;;;;;;;-143.21;47.08;72312.13;5132771;27;20279;-76
2023/10/02 09:03:41;;;;;;;11.27;5.28;;;;;;;-143.21;46.43;72274.47;5141295;27;20189;-77
2023/10/02 09:11:34;;;;;;;14.43;4.90;;;;;;;-143.21;44.11;72175.31;5131822;27;20191;-77
2023/10/02 09:14:16;;;;;;;9.20;4.70;;;;;;;-143.21;42.86;72147.53;5132590;27;20223;-77
2023/10/02 09:16:46;;;;;;;9.30;4.97;;;;;;;-143.21;42.32;72161.41;5118222;27;20216;-78
2023/10/02 09:19:34;;;;;;;11.60;4.78;;;;;;;-143.21;41.88;72147.53;5116952;27;20564;-77
2023/10/02 09:22:10;;;;;;;14.48;5.65;;;;;;;-143.21;41.83;72145.56;5113487;28;20605;-77
2023/10/02 09:24:40;;;;;;;13.77;5.63;;;;;;;-143.21;41.25;72123.75;5114602;28;20241;-76
2023/10/02 09:30:17;;;;;;;11.18;5.35;;;;;;;-143.21;40.62;72107.88;5076576;28;20211;-76
2023/10/02 09:32:51;;;;;;;10.30;5.00;;;;;;;-143.21;40.41;72092.00;5114145;28;20180;-76
2023/10/02 09:35:29;;;;;;;9.25;4.60;;;;;;;-143.21;39.48;72058.31;5113762;28;20219;-77
2023/10/02 09:37:58;;;;;;;14.95;5.65;;;;;;;-143.21;39.26;72016.66;5113682;28;20664;-76
2023/10/02 09:40:51;;;;;;;13.20;6.20;;;;;;;-143.21;38.83;71986.91;5113435;28;20188;-76
2023/10/02 09:43:20;;;;;;;13.35;6.50;;;;;;;-143.21;37.52;71947.25;5113487;28;20196;-77
2023/10/02 09:45:49;;;;;;;12.27;5.05;;;;;;;-143.21;37.14;71921.47;5113065;28;20192;-77
2023/10/02 09:51:08;;;;;;;9.68;5.00;;;;;;;-143.21;35.58;71852.06;5118818;27;20225;-76
2023/10/02 09:53:43;;;;;;;10.90;4.63;;;;;;;-143.21;35.29;71852.06;5156020;27;20178;-76
2023/10/02 09:56:51;;;;;;;12.00;5.38;;;;;;;-143.21;35.44;71854.06;5134739;27;20740;-77
2023/10/02 09:59:21;;;;;;;10.13;4.80;;;;;;;-143.21;35.37;71844.16;5112981;28;20196;-76
2023/10/02 10:08:18;;;;;;;11.80;4.82;;;;;;;-143.21;35.13;71850.09;5113485;28;20187;-77
2023/10/02 10:10:48;;;;;;;8.45;4.80;;;;;;;-143.21;34.01;71808.44;5113520;28;20197;-76
2023/10/02 10:13:36;;;;;;;9.32;4.97;;;;;;;-143.21;33.59;71745.00;5113385;28;20204;-77
2023/10/02 10:16:36;;;;;;;9.48;4.88;;;;;;;-143.21;33.78;71719.22;5112900;28;20296;-77
2023/10/02 10:19:27;;;;;;;10.02;5.18;;;;;;;-143.21;33.46;71715.25;5119610;27;20287;-77
2023/10/02 10:21:56;;;;;;;11.88;5.38;;;;;;;-143.21;33.38;71695.44;5112972;28;20196;-77
2023/10/02 10:25:22;;;;;;;10.38;5.55;;;;;;;-143.21;33.10;71669.66;5112556;28;20256;-78
2023/10/02 10:27:58;;;;;;;13.68;4.85;;;;;;;-143.21;33.80;71697.41;5112991;28;20233;-77
2023/10/02 10:30:36;;;;;;;8.27;5.20;;;;;;;-143.21;33.40;71673.63;5112252;28;20657;-77
2023/10/02 10:33:35;;;;;;;13.98;5.13;;;;;;;-143.21;32.67;71637.94;5112594;28;20256;-76
2023/10/02 10:36:25;;;;;;;12.35;5.18;;;;;;;-143.21;33.25;71618.09;5113220;28;20200;-77
2023/10/02 10:38:51;;;;;;;8.65;4.50;;;;;;;-143.21;33.13;71637.94;5126684;27;20204;-76
2023/10/02 10:41:33;;;;;;;9.80;4.90;;;;;;;-143.21;33.10;71584.41;5133465;27;20206;-76
2023/10/02 10:44:06;;;;;;;9.65;4.90;;;;;;;-143.21;32.43;71532.84;5129269;27;20233;-76
2023/10/02 10:46:37;;;;;;;9.15;5.25;;;;;;;-143.21;31.81;71475.34;5132792;27;20241;-77
2023/10/02 10:49:10;;;;;;;8.88;5.68;;;;;;;-143.21;31.54;71417.84;5133742;27;20183;-78
2023/10/02 10:51:41;;;;;;;10.85;5.40;;;;;;;-143.21;31.01;71407.94;5133350;27;20288;-77
2023/10/02 10:54:25;;;;;;;10.82;5.18;;;;;;;-143.21;30.43;71378.19;5153879;27;20187;-76
2023/10/02 10:56:58;;;;;;;10.80;5.05;;;;;;;-143.21;31.15;71431.72;5152972;27;20218;-78
2023/10/02 10:59:32;;;;;;;7.47;4.65;;;;;;;-143.21;31.04;71409.91;5153583;27;20250;-78
2023/10/02 11:02:12;;;;;;;10.05;5.50;;;;;;;-143.21;31.10;71417.84;5153722;27;20278;-76
2023/10/02 11:04:40;;;;;;;8.40;5.30;;;;;;;-143.21;31.00;71364.31;5155509;27;20186;-77
2023/10/02 11:07:21;;;;;;;8.07;5.20;;;;;;;-143.21;30.48;71320.69;5153555;27;20221;-75
2023/10/02 11:10:14;;;;;;;10.48;5.03;;;;;;;-143.21;30.49;71296.91;5153631;27;20198;-77
2023/10/02 11:12:54;;;;;;;10.15;5.60;;;;;;;-143.21;30.03;71277.09;5154008;27;20191;-76
2023/10/02 11:15:45;;;;;;;10.10;5.13;;;;;;;-143.21;29.81;71233.47;5164274;27;20234;-77
2023/10/02 11:18:23;;;;;;;13.93;5.53;;;;;;;-143.21;29.55;71237.44;5136416;27;20188;-76
2023/10/02 11:20:51;;;;;;;8.75;5.20;;;;;;;-143.21;29.57;71235.44;5112503;28;20263;-76
2023/10/02 11:23:37;;;;;;;11.10;5.18;;;;;;;-143.21;29.54;71233.47;5112114;28;20615;-76
2023/10/02 11:26:10;;;;;;;11.98;5.30;;;;;;;-143.21;30.07;71259.25;5112288;28;20187;-77
2023/10/02 11:28:37;;;;;;;12.25;5.30;;;;;;;-143.21;29.64;71225.53;5111801;28;20219;-78
2023/10/02 11:31:30;;;;;;;10.95;4.88;;;;;;;-143.21;29.83;71213.66;5111678;28;20256;-77
2023/10/02 11:34:04;;;;;;;12.18;5.20;;;;;;;-143.21;30.02;71239.41;5111903;28;20257;-76
2023/10/02 11:36:35;;;;;;;10.48;4.85;;;;;;;-143.21;30.88;71326.66;5111563;28;20352;-76
2023/10/02 11:39:09;;;;;;;7.55;4.88;;;;;;;-143.21;31.09;71288.97;5111760;28;20565;-76
2023/10/02 11:41:37;;;;;;;10.93;4.75;;;;;;;-143.21;30.65;71263.22;5112042;28;20189;-77
2023/10/02 11:44:06;;;;;;;9.77;5.22;;;;;;;-143.21;30.89;71269.16;5111703;28;20223;-78
2023/10/02 11:46:33;;;;;;;13.52;5.30;;;;;;;-143.21;30.94;71247.34;5111738;28;20196;-75
2023/10/02 11:49:00;;;;;;;7.38;4.70;;;;;;;-143.21;30.61;71187.88;5150649;27;20202;-75
2023/10/02 11:51:29;;;;;;;10.38;5.13;;;;;;;-143.21;29.94;71172.00;5152888;27;20222;-75
2023/10/02 11:53:57;;;;;;;14.93;5.38;;;;;;;-143.21;29.95;71187.88;5152849;27;20279;-76
2023/10/02 11:56:26;;;;;;;9.35;5.18;;;;;;;-143.21;29.73;71175.97;5150150;27;20278;-77
2023/10/02 11:58:53;;;;;;;8.25;5.43;;;;;;;-143.21;29.84;71185.88;5110876;28;20239;-76
2023/10/02 12:01:22;;;;;;;10.25;6.10;;;;;;;-143.21;29.66;71162.09;5111527;28;20188;-77
2023/10/02 12:03:49;;;;;;;10.38;5.20;;;;;;;-143.21;29.30;71146.25;5111546;28;20260;-76
2023/10/02 12:06:17;;;;;;;8.80;5.22;;;;;;;-143.21;29.12;71122.44;5111442;28;20203;-76
2023/10/02 12:08:45;;;;;;;10.73;5.45;;;;;;;-143.21;29.27;71154.16;5115238;28;20198;-76
2023/10/02 12:11:13;;;;;;;10.48;5.25;;;;;;;-143.21;29.57;71185.88;5118060;28;20187;-77
2023/10/02 12:13:44;;;;;;;7.40;4.45;;;;;;;-143.21;30.09;71245.38;5118555;28;20192;-75
2023/10/02 12:16:14;;;;;;;8.45;4.68;;;;;;;-143.21;30.28;71243.38;5115873;28;20216;-77
2023/10/02 12:18:41;;;;;;;7.55;4.75;;;;;;;-143.21;30.51;71269.16;5115806;28;20204;-76
2023/10/02 12:21:10;;;;;;;9.50;5.07;;;;;;;-143.21;30.80;71285.03;5115589;28;20202;-77
2023/10/02 12:23:39;;;;;;;10.07;5.85;;;;;;;-143.21;30.81;71275.09;5116476;28;20720;-76